createdAt,value
2018-10-05T00:00:29.664Z,11.96
2018-10-05T00:01:09.756Z,11.98
2018-10-05T00:01:50.308Z,12.03
2018-10-05T00:02:31.199Z,11.98
2018-10-05T00:03:11.563Z,12
2018-10-05T00:03:53.550Z,12.01
2018-10-05T00:04:34.034Z,11.98
2018-10-05T00:05:18.082Z,11.93
2018-10-05T00:05:57.911Z,12.08
2018-10-05T00:06:38.862Z,12.08
2018-10-05T00:07:18.977Z,12.08
2018-10-05T00:07:59.350Z,12.12
2018-10-05T00:08:39.978Z,12.11
2018-10-05T00:09:20.471Z,12.07
2018-10-05T00:10:02.837Z,12.12
2018-10-05T00:10:45.002Z,12
2018-10-05T00:11:24.315Z,11.98
2018-10-05T00:12:04.629Z,12.12
2018-10-05T00:12:45.182Z,12.04
2018-10-05T00:13:25.601Z,12.08
2018-10-05T00:14:06.567Z,12.16
2018-10-05T00:14:47.862Z,12.07
2018-10-05T00:15:28.144Z,12.12
2018-10-05T00:16:08.556Z,12.07
2018-10-05T00:16:49.030Z,12.01
2018-10-05T00:17:29.425Z,12.12
2018-10-05T00:18:09.842Z,12.04
2018-10-05T00:18:50.309Z,12.11
2018-10-05T00:19:31.082Z,12.05
2018-10-05T00:20:11.525Z,12.04
2018-10-05T00:20:51.938Z,12.04
2018-10-05T00:21:32.479Z,12
2018-10-05T00:22:12.965Z,11.98
2018-10-05T00:22:53.526Z,11.96
2018-10-05T00:23:34.182Z,11.94
2018-10-05T00:24:14.598Z,11.96
2018-10-05T00:24:55.060Z,11.98
2018-10-05T00:25:35.425Z,11.98
2018-10-05T00:26:15.860Z,11.94
2018-10-05T00:26:56.300Z,11.9
2018-10-05T00:27:36.773Z,11.94
2018-10-05T00:28:17.258Z,11.93
2018-10-05T00:28:57.784Z,11.78
2018-10-05T00:29:38.398Z,11.81
2018-10-05T00:30:18.681Z,11.77
2018-10-05T00:30:59.493Z,11.75
2018-10-05T00:31:39.863Z,11.81
2018-10-05T00:32:20.553Z,11.75
2018-10-05T00:33:01.192Z,11.67
2018-10-05T00:33:41.717Z,11.7
2018-10-05T00:34:22.199Z,11.7
2018-10-05T00:35:02.771Z,11.69
2018-10-05T00:35:43.308Z,11.63
2018-10-05T00:36:23.646Z,11.69
2018-10-05T00:37:04.285Z,11.64
2018-10-05T00:37:44.726Z,11.57
2018-10-05T00:38:24.994Z,11.64
2018-10-05T00:39:05.362Z,11.62
2018-10-05T00:39:45.810Z,11.67
2018-10-05T00:40:26.842Z,11.64
2018-10-05T00:41:07.234Z,11.72
2018-10-05T00:41:47.928Z,11.72
2018-10-05T00:42:28.788Z,11.66
2018-10-05T00:43:08.952Z,11.74
2018-10-05T00:43:49.337Z,11.81
2018-10-05T00:44:30.378Z,11.72
2018-10-05T00:45:10.989Z,11.87
2018-10-05T00:45:51.367Z,11.82
2018-10-05T00:46:31.713Z,11.87
2018-10-05T00:47:12.092Z,11.82
2018-10-05T00:47:52.796Z,11.84
2018-10-05T00:48:33.192Z,11.82
2018-10-05T00:49:14.698Z,11.9
2018-10-05T00:49:54.299Z,11.85
2018-10-05T00:50:34.810Z,11.93
2018-10-05T00:51:15.322Z,11.87
2018-10-05T00:51:55.561Z,11.84
2018-10-05T00:52:35.992Z,11.85
2018-10-05T00:53:17.267Z,11.69
2018-10-05T00:53:57.306Z,11.84
2018-10-05T00:54:37.650Z,11.78
2018-10-05T00:55:18.090Z,11.72
2018-10-05T00:55:58.501Z,11.75
2018-10-05T00:56:39.029Z,11.66
2018-10-05T00:57:19.338Z,11.63
2018-10-05T00:57:59.843Z,11.62
2018-10-05T00:58:40.343Z,11.63
2018-10-05T00:59:20.751Z,11.6
2018-10-05T01:00:01.263Z,11.63
2018-10-05T01:00:41.848Z,11.53
2018-10-05T01:01:22.922Z,11.54
2018-10-05T01:02:03.347Z,11.57
2018-10-05T01:02:43.916Z,11.53
2018-10-05T01:03:24.254Z,11.54
2018-10-05T01:04:04.614Z,11.53
2018-10-05T01:04:45.352Z,11.39
2018-10-05T01:05:25.858Z,11.46
2018-10-05T01:06:06.202Z,11.48
2018-10-05T01:06:47.158Z,11.51
2018-10-05T01:07:27.189Z,11.57
2018-10-05T01:08:07.797Z,11.48
2018-10-05T01:08:48.224Z,11.45
2018-10-05T01:09:30.215Z,11.54
2018-10-05T01:10:13.300Z,11.56
2018-10-05T01:10:54.110Z,11.48
2018-10-05T01:11:34.575Z,11.46
2018-10-05T01:12:15.547Z,11.63
2018-10-05T01:12:55.630Z,11.62
2018-10-05T01:13:36.294Z,11.62
2018-10-05T01:14:16.695Z,11.6
2018-10-05T01:14:57.282Z,11.56
2018-10-05T01:15:37.605Z,11.48
2018-10-05T01:16:18.377Z,11.39
2018-10-05T01:16:58.769Z,11.28
2018-10-05T01:17:39.226Z,11.26
2018-10-05T01:18:19.768Z,11.23
2018-10-05T01:19:00.020Z,11.19
2018-10-05T01:19:40.971Z,11.26
2018-10-05T01:20:21.233Z,11.19
2018-10-05T01:21:02.572Z,11.3
2018-10-05T01:21:43.535Z,11.31
2018-10-05T01:22:23.552Z,11.35
2018-10-05T01:23:04.338Z,11.35
2018-10-05T01:23:45.000Z,11.3
2018-10-05T01:24:26.021Z,11.38
2018-10-05T01:25:07.525Z,11.28
2018-10-05T01:25:47.449Z,11.36
2018-10-05T01:26:28.325Z,11.39
2018-10-05T01:27:08.450Z,11.31
2018-10-05T01:27:49.085Z,11.36
2018-10-05T01:28:29.557Z,11.35
2018-10-05T01:29:10.019Z,11.45
2018-10-05T01:29:51.019Z,11.44
2018-10-05T01:30:31.489Z,11.42
2018-10-05T01:31:12.288Z,11.41
2018-10-05T01:31:52.842Z,11.45
2018-10-05T01:32:33.381Z,11.33
2018-10-05T01:33:16.178Z,11.41
2018-10-05T01:34:01.980Z,11.35
2018-10-05T01:34:41.213Z,11.44
2018-10-05T01:35:21.441Z,11.53
2018-10-05T01:36:01.983Z,11.46
2018-10-05T01:36:42.829Z,11.53
2018-10-05T01:37:26.194Z,11.56
2018-10-05T01:38:05.478Z,11.46
2018-10-05T01:38:46.390Z,11.6
2018-10-05T01:39:27.005Z,11.53
2018-10-05T01:40:07.255Z,11.57
2018-10-05T01:40:47.647Z,11.56
2018-10-05T01:41:28.050Z,11.6
2018-10-05T01:42:08.465Z,11.6
2018-10-05T01:42:49.427Z,11.57
2018-10-05T01:43:30.294Z,11.57
2018-10-05T01:44:11.411Z,11.56
2018-10-05T01:44:51.616Z,11.51
2018-10-05T01:45:32.487Z,11.51
2018-10-05T01:46:12.806Z,11.53
2018-10-05T01:46:53.333Z,11.45
2018-10-05T01:47:33.812Z,11.35
2018-10-05T01:48:14.445Z,11.36
2018-10-05T01:48:55.321Z,11.33
2018-10-05T01:49:37.159Z,11.33
2018-10-05T01:50:17.605Z,11.44
2018-10-05T01:50:58.814Z,11.49
2018-10-05T01:51:39.747Z,11.46
2018-10-05T01:52:20.403Z,11.51
2018-10-05T01:53:00.676Z,11.53
2018-10-05T01:53:48.113Z,11.54
2018-10-05T01:54:24.562Z,11.63
2018-10-05T01:55:05.815Z,11.6
2018-10-05T01:55:47.408Z,11.56
2018-10-05T01:56:27.397Z,11.7
2018-10-05T01:57:08.087Z,11.64
2018-10-05T01:57:49.012Z,11.63
2018-10-05T01:58:29.984Z,11.66
2018-10-05T01:59:10.528Z,11.77
2018-10-05T01:59:52.003Z,11.77
2018-10-05T02:00:32.345Z,11.78
2018-10-05T02:01:16.015Z,11.85
2018-10-05T02:01:55.237Z,11.81
2018-10-05T02:02:35.610Z,11.72
2018-10-05T02:03:16.164Z,11.75
2018-10-05T02:03:56.353Z,11.63
2018-10-05T02:04:39.534Z,11.67
2018-10-05T02:05:18.117Z,11.63
2018-10-05T02:05:58.458Z,11.6
2018-10-05T02:06:38.885Z,11.6
2018-10-05T02:07:19.402Z,11.57
2018-10-05T02:07:59.855Z,11.62
2018-10-05T02:08:40.419Z,11.62
2018-10-05T02:09:22.148Z,11.53
2018-10-05T02:10:01.499Z,11.57
2018-10-05T02:10:41.848Z,11.49
2018-10-05T02:11:22.275Z,11.63
2018-10-05T02:12:02.739Z,11.75
2018-10-05T02:12:43.186Z,11.62
2018-10-05T02:13:23.726Z,11.7
2018-10-05T02:14:04.003Z,11.7
2018-10-05T02:14:44.411Z,11.64
2018-10-05T02:15:24.871Z,11.77
2018-10-05T02:16:05.395Z,11.62
2018-10-05T02:16:46.507Z,11.63
2018-10-05T02:17:26.845Z,11.6
2018-10-05T02:18:07.516Z,11.57
2018-10-05T02:18:47.583Z,11.53
2018-10-05T02:19:28.129Z,11.39
2018-10-05T02:20:09.680Z,11.36
2018-10-05T02:20:50.318Z,11.35
2018-10-05T02:21:32.977Z,11.28
2018-10-05T02:22:13.370Z,11.3
2018-10-05T02:22:53.867Z,11.23
2018-10-05T02:23:34.223Z,11.26
2018-10-05T02:24:14.829Z,11.21
2018-10-05T02:24:55.485Z,11.2
2018-10-05T02:25:36.003Z,11.16
2018-10-05T02:26:16.550Z,11.31
2018-10-05T02:26:57.025Z,11.31
2018-10-05T02:27:37.847Z,11.3
2018-10-05T02:28:18.530Z,11.28
2018-10-05T02:28:59.307Z,11.3
2018-10-05T02:29:39.783Z,11.24
2018-10-05T02:30:20.238Z,11.27
2018-10-05T02:31:00.619Z,11.28
2018-10-05T02:31:41.094Z,11.27
2018-10-05T02:32:22.155Z,11.23
2018-10-05T02:33:02.855Z,11.16
2018-10-05T02:33:43.432Z,11.2
2018-10-05T02:34:23.893Z,11.24
2018-10-05T02:35:05.675Z,11.16
2018-10-05T02:35:47.313Z,11.16
2018-10-05T02:36:27.617Z,11.21
2018-10-05T02:37:08.882Z,11.21
2018-10-05T02:37:49.237Z,11.12
2018-10-05T02:38:30.631Z,11.21
2018-10-05T02:39:10.248Z,11.13
2018-10-05T02:39:50.592Z,11.19
2018-10-05T02:40:31.093Z,11.16
2018-10-05T02:41:12.172Z,11.16
2018-10-05T02:41:52.922Z,11.26
2018-10-05T02:42:33.301Z,11.27
2018-10-05T02:43:14.027Z,11.16
2018-10-05T02:43:54.454Z,11.19
2018-10-05T02:44:34.779Z,11.2
2018-10-05T02:45:15.500Z,11.27
2018-10-05T02:45:55.665Z,11.31
2018-10-05T02:46:36.104Z,11.35
2018-10-05T02:47:16.551Z,11.26
2018-10-05T02:47:57.373Z,11.16
2018-10-05T02:48:37.734Z,11.21
2018-10-05T02:49:18.082Z,11.17
2018-10-05T02:49:58.526Z,11.19
2018-10-05T02:50:39.125Z,11.13
2018-10-05T02:51:19.465Z,11.19
2018-10-05T02:51:59.892Z,11.16
2018-10-05T02:52:40.317Z,11.19
2018-10-05T02:53:20.914Z,11.2
2018-10-05T02:54:01.125Z,11.08
2018-10-05T02:54:41.666Z,11.05
2018-10-05T02:55:22.071Z,11.12
2018-10-05T02:56:03.421Z,11.08
2018-10-05T02:56:43.950Z,11.12
2018-10-05T02:57:24.919Z,11.11
2018-10-05T02:58:05.269Z,11.2
2018-10-05T02:58:50.048Z,11.2
2018-10-05T02:59:31.493Z,11.26
2018-10-05T03:00:09.873Z,11.36
2018-10-05T03:00:53.734Z,11.36
2018-10-05T03:01:33.568Z,11.41
2018-10-05T03:02:17.243Z,11.41
2018-10-05T03:03:03.725Z,11.39
2018-10-05T03:04:41.301Z,11.46
2018-10-05T03:05:31.933Z,11.53
2018-10-05T03:06:11.306Z,11.66
2018-10-05T03:06:51.683Z,11.63
2018-10-05T03:07:32.124Z,11.67
2018-10-05T03:08:12.565Z,11.64
2018-10-05T03:08:53.048Z,11.66
2018-10-05T03:09:33.454Z,11.63
2018-10-05T03:10:13.846Z,11.6
2018-10-05T03:10:54.245Z,11.74
2018-10-05T03:11:34.597Z,11.67
2018-10-05T03:12:15.041Z,11.77
2018-10-05T03:12:56.400Z,11.84
2018-10-05T03:13:36.820Z,11.81
2018-10-05T03:14:19.492Z,11.7
2018-10-05T03:14:59.865Z,11.74
2018-10-05T03:15:40.275Z,11.78
2018-10-05T03:16:20.735Z,11.7
2018-10-05T03:17:01.157Z,11.77
2018-10-05T03:17:41.741Z,11.78
2018-10-05T03:18:22.276Z,11.69
2018-10-05T03:19:03.504Z,11.67
2018-10-05T03:19:44.241Z,11.62
2018-10-05T03:20:25.964Z,11.62
2018-10-05T03:21:06.689Z,11.62
2018-10-05T03:21:47.093Z,11.51
2018-10-05T03:22:27.416Z,11.63
2018-10-05T03:23:08.380Z,11.6
2018-10-05T03:23:48.729Z,11.59
2018-10-05T03:24:32.330Z,11.64
2018-10-05T03:25:13.764Z,11.57
2018-10-05T03:25:53.693Z,11.59
2018-10-05T03:26:34.073Z,11.57
2018-10-05T03:27:16.066Z,11.6
2018-10-05T03:27:55.289Z,11.48
2018-10-05T03:28:40.266Z,11.44
2018-10-05T03:29:24.467Z,11.38
2018-10-05T03:31:40.302Z,11.2
2018-10-05T03:32:24.140Z,11.19
2018-10-05T03:33:04.600Z,11.21
2018-10-05T03:33:45.159Z,11.13
2018-10-05T03:34:25.600Z,11.02
2018-10-05T03:37:50.655Z,11.12
2018-10-05T03:38:29.298Z,11.16
2018-10-05T03:40:27.856Z,11.12
2018-10-05T03:41:09.785Z,11.11
2018-10-05T03:41:50.103Z,11.06
2018-10-05T03:42:30.381Z,11.13
2018-10-05T03:43:10.768Z,11.23
2018-10-05T03:43:51.336Z,11.17
2018-10-05T03:44:31.718Z,11.17
2018-10-05T03:45:12.514Z,11.16
2018-10-05T03:45:52.529Z,11.24
2018-10-05T03:46:32.983Z,11.17
2018-10-05T03:47:13.374Z,11.21
2018-10-05T03:47:53.866Z,11.26
2018-10-05T03:48:34.756Z,11.24
2018-10-05T03:49:18.102Z,11.19
2018-10-05T03:49:58.502Z,11.21
2018-10-05T03:50:39.311Z,11.16
2018-10-05T03:51:19.890Z,11.06
2018-10-05T03:52:00.267Z,11.19
2018-10-05T03:52:40.607Z,11.16
2018-10-05T03:53:25.730Z,11.17
2018-10-05T03:54:06.204Z,11.16
2018-10-05T03:54:46.635Z,11.17
2018-10-05T03:55:27.156Z,11.19
2018-10-05T03:56:07.637Z,11.16
2018-10-05T03:56:49.661Z,11.16
2018-10-05T03:57:30.140Z,11.13
2018-10-05T03:58:10.575Z,11.16
2018-10-05T03:58:50.960Z,11.16
2018-10-05T03:59:31.485Z,11.16
2018-10-05T04:00:11.867Z,11.13
2018-10-05T04:00:52.280Z,11.05
2018-10-05T04:01:32.695Z,11.06
2018-10-05T04:02:15.023Z,11.06
2018-10-05T04:02:57.900Z,11.06
2018-10-05T04:06:14.844Z,10.91
2018-10-05T04:06:55.603Z,10.86
2018-10-05T04:07:36.043Z,10.95
2018-10-05T04:08:16.532Z,10.84
2018-10-05T04:08:57.143Z,10.78
2018-10-05T04:09:37.784Z,10.8
2018-10-05T04:10:18.590Z,10.81
2018-10-05T04:10:59.008Z,10.76
2018-10-05T04:11:39.528Z,10.65
2018-10-05T04:12:20.075Z,10.69
2018-10-05T04:13:00.483Z,10.72
2018-10-05T04:13:41.220Z,10.72
2018-10-05T04:14:21.543Z,10.69
2018-10-05T04:15:01.991Z,10.66
2018-10-05T04:15:42.460Z,10.63
2018-10-05T04:16:24.308Z,10.63
2018-10-05T04:17:05.045Z,10.7
2018-10-05T04:17:45.597Z,10.62
2018-10-05T04:18:25.907Z,10.69
2018-10-05T04:19:06.355Z,10.63
2018-10-05T04:19:46.893Z,10.72
2018-10-05T04:20:27.324Z,10.66
2018-10-05T04:21:07.664Z,10.63
2018-10-05T04:21:48.145Z,10.7
2018-10-05T04:22:28.528Z,10.63
2018-10-05T04:23:09.249Z,10.69
2018-10-05T04:23:49.900Z,10.68
2018-10-05T04:24:30.087Z,10.69
2018-10-05T04:25:10.623Z,10.66
2018-10-05T04:25:51.425Z,10.62
2018-10-05T04:26:33.571Z,10.57
2018-10-05T04:27:14.261Z,10.55
2018-10-05T05:07:23.255Z,9.68
2018-10-05T05:08:09.645Z,9.63
2018-10-05T05:08:51.365Z,9.73
2018-10-05T05:09:31.762Z,9.7
2018-10-05T05:10:12.515Z,9.67
2018-10-05T05:10:52.863Z,9.7
2018-10-05T05:11:33.264Z,9.74
2018-10-05T05:12:13.823Z,9.75
2018-10-05T05:12:54.135Z,9.81
2018-10-05T05:13:34.851Z,9.86
2018-10-05T05:14:15.329Z,9.8
2018-10-05T05:14:55.800Z,9.77
2018-10-05T05:15:36.224Z,9.8
2018-10-05T05:16:16.570Z,9.78
2018-10-05T05:16:57.087Z,9.85
2018-10-05T05:17:37.417Z,10.02
2018-10-05T05:18:17.954Z,9.95
2018-10-05T05:18:58.302Z,10.02
2018-10-05T05:19:38.758Z,9.99
2018-10-05T05:20:19.195Z,10.02
2018-10-05T05:20:59.620Z,10.11
2018-10-05T05:21:40.004Z,10.17
2018-10-05T05:22:20.516Z,10.18
2018-10-05T05:23:00.901Z,10.17
2018-10-05T05:23:41.542Z,10.16
2018-10-05T05:24:21.798Z,10.13
2018-10-05T05:25:02.291Z,10.13
2018-10-05T05:25:42.732Z,10.13
2018-10-05T05:26:23.023Z,10.06
2018-10-05T05:27:03.453Z,10.17
2018-10-05T05:27:44.108Z,10.16
2018-10-05T05:28:24.621Z,10.17
2018-10-05T05:29:04.984Z,10.16
2018-10-05T05:29:45.384Z,10.24
2018-10-05T05:30:25.808Z,10.22
2018-10-05T05:31:06.216Z,10.28
2018-10-05T05:31:46.639Z,10.32
2018-10-05T05:32:27.051Z,10.34
2018-10-05T05:33:07.476Z,10.38
2018-10-05T05:33:48.047Z,10.32
2018-10-05T05:34:28.394Z,10.47
2018-10-05T05:35:08.841Z,10.44
2018-10-05T05:35:49.297Z,10.43
2018-10-05T05:36:29.695Z,10.44
2018-10-05T05:37:10.164Z,10.42
2018-10-05T05:37:50.965Z,10.42
2018-10-05T05:38:31.384Z,10.38
2018-10-05T05:39:11.864Z,10.44
2018-10-05T05:39:52.309Z,10.43
2018-10-05T05:40:41.908Z,10.44
2018-10-05T05:42:34.705Z,10.43
2018-10-05T05:43:16.244Z,10.52
2018-10-05T05:43:56.606Z,10.46
2018-10-05T05:44:37.090Z,10.43
2018-10-05T05:45:17.938Z,10.38
2018-10-05T05:45:58.110Z,10.42
2018-10-05T05:46:38.610Z,10.46
2018-10-05T05:47:18.960Z,10.43
2018-10-05T05:47:59.336Z,10.49
2018-10-05T05:48:39.785Z,10.47
2018-10-05T05:49:20.310Z,10.46
2018-10-05T05:50:00.816Z,10.58
2018-10-05T05:50:41.403Z,10.62
2018-10-05T05:51:21.719Z,10.69
2018-10-05T05:52:02.129Z,10.58
2018-10-05T05:52:42.552Z,10.78
2018-10-05T05:53:23.140Z,10.78
2018-10-05T05:54:03.481Z,10.87
2018-10-05T05:54:44.103Z,10.88
2018-10-05T05:55:24.582Z,10.9
2018-10-05T05:56:04.918Z,11.05
2018-10-05T05:56:45.234Z,11.08
2018-10-05T05:57:25.966Z,11.13
2018-10-05T05:58:06.500Z,11.24
2018-10-05T05:58:46.841Z,11.13
2018-10-05T05:59:27.438Z,11.26
2018-10-05T06:00:07.688Z,11.35
2018-10-05T06:00:48.129Z,11.39
2018-10-05T06:01:28.704Z,11.45
2018-10-05T06:02:09.452Z,11.59
2018-10-05T06:02:49.966Z,11.72
2018-10-05T06:03:31.490Z,11.84
2018-10-05T06:04:12.597Z,11.82
2018-10-05T06:04:53.132Z,12
2018-10-05T06:05:33.664Z,12
2018-10-05T06:06:14.909Z,12.21
2018-10-05T06:08:31.236Z,12.43
2018-10-05T06:09:27.269Z,12.62
2018-10-05T06:10:19.455Z,12.73
2018-10-05T06:11:11.344Z,12.77
2018-10-05T06:13:06.754Z,12.91
2018-10-05T06:13:59.951Z,13.09
2018-10-05T06:14:52.120Z,13.29
2018-10-05T06:15:32.719Z,13.29
2018-10-05T06:16:13.212Z,13.41
2018-10-05T06:16:53.728Z,13.41
2018-10-05T06:17:34.187Z,13.36
2018-10-05T06:18:14.541Z,13.48
2018-10-05T06:18:55.007Z,13.5
2018-10-05T06:19:35.420Z,13.54
2018-10-05T06:20:15.772Z,13.62
2018-10-05T06:20:56.350Z,13.59
2018-10-05T06:21:36.910Z,13.61
2018-10-05T06:22:17.502Z,13.76
2018-10-05T06:23:01.282Z,13.83
2018-10-05T06:23:40.028Z,13.94
2018-10-05T06:24:20.446Z,14.05
2018-10-05T06:25:00.912Z,14.11
2018-10-05T06:25:45.138Z,14.16
2018-10-05T06:26:27.400Z,14.12
2018-10-05T06:27:12.826Z,14.3
2018-10-05T06:27:53.235Z,14.34
2018-10-05T06:28:33.730Z,14.45
2018-10-05T06:29:14.468Z,14.54
2018-10-05T06:29:55.170Z,14.6
2018-10-05T06:30:35.923Z,14.63
2018-10-05T06:31:16.348Z,14.63
2018-10-05T06:31:56.719Z,14.79
2018-10-05T06:32:37.122Z,14.79
2018-10-05T06:33:17.590Z,14.75
2018-10-05T06:33:57.876Z,14.78
2018-10-05T06:34:38.368Z,14.83
2018-10-05T06:35:18.841Z,14.91
2018-10-05T06:35:59.481Z,15.03
2018-10-05T06:36:39.821Z,15.13
2018-10-05T06:37:20.247Z,15.18
2018-10-05T06:38:00.811Z,15.23
2018-10-05T06:38:41.232Z,15.22
2018-10-05T06:39:21.641Z,15.33
2018-10-05T06:40:02.172Z,15.31
2018-10-05T06:40:43.134Z,15.31
2018-10-05T06:41:23.751Z,15.35
2018-10-05T06:42:04.196Z,15.49
2018-10-05T06:42:44.828Z,15.37
2018-10-05T06:43:25.353Z,15.44
2018-10-05T06:44:05.918Z,15.52
2018-10-05T06:44:46.212Z,15.49
2018-10-05T06:45:26.660Z,15.59
2018-10-05T06:46:07.057Z,15.7
2018-10-05T06:46:47.423Z,15.74
2018-10-05T06:47:27.876Z,15.76
2018-10-05T06:48:08.421Z,15.8
2018-10-05T06:48:48.737Z,15.93
2018-10-05T06:49:29.303Z,15.92
2018-10-05T06:50:09.821Z,16.07
2018-10-05T06:50:50.469Z,16.1
2018-10-05T06:51:31.398Z,16.25
2018-10-05T06:52:13.190Z,16.36
2018-10-05T06:52:53.315Z,16.33
2018-10-05T06:53:33.967Z,16.42
2018-10-05T06:54:15.010Z,16.47
2018-10-05T06:54:56.100Z,16.5
2018-10-05T06:55:37.128Z,16.55
2018-10-05T06:56:17.491Z,16.57
2018-10-05T06:56:58.199Z,16.55
2018-10-05T06:57:41.136Z,16.48
2018-10-05T06:58:21.622Z,16.5
2018-10-05T06:59:02.177Z,16.44
2018-10-05T06:59:42.579Z,16.44
2018-10-05T07:00:23.665Z,16.36
2018-10-05T07:01:05.612Z,16.33
2018-10-05T07:01:45.823Z,16.23
2018-10-05T07:02:27.138Z,16.29
2018-10-05T07:03:07.788Z,16.29
2018-10-05T07:03:49.110Z,16.41
2018-10-05T07:04:29.226Z,16.32
2018-10-05T07:05:12.641Z,16.41
2018-10-05T07:05:54.241Z,16.5
2018-10-05T07:06:33.789Z,16.47
2018-10-05T07:07:14.394Z,16.51
2018-10-05T07:07:56.199Z,16.44
2018-10-05T07:08:37.676Z,16.59
2018-10-05T07:09:18.947Z,16.54
2018-10-05T07:09:58.875Z,16.6
2018-10-05T07:10:40.127Z,16.55
2018-10-05T07:11:21.676Z,16.69
2018-10-05T07:12:01.819Z,16.62
2018-10-05T07:12:43.585Z,16.57
2018-10-05T07:13:34.870Z,16.51
2018-10-05T07:14:26.131Z,16.54
2018-10-05T07:15:05.462Z,16.45
2018-10-05T07:15:46.486Z,16.54
2018-10-05T07:16:28.084Z,16.57
2018-10-05T07:18:46.167Z,16.77
2018-10-05T07:19:43.509Z,16.77
2018-10-05T07:20:32.343Z,16.78
2018-10-05T07:21:12.781Z,16.72
2018-10-05T07:21:53.536Z,16.63
2018-10-05T07:22:34.515Z,16.62
2018-10-05T07:23:16.708Z,16.65
2018-10-05T07:23:56.244Z,16.62
2018-10-05T07:24:37.109Z,16.65
2018-10-05T07:25:18.166Z,16.7
2018-10-05T07:25:58.959Z,16.73
2018-10-05T07:26:40.158Z,16.73
2018-10-05T07:27:20.924Z,16.8
2018-10-05T07:28:02.557Z,16.72
2018-10-05T07:28:43.376Z,16.82
2018-10-05T07:29:24.516Z,16.95
2018-10-05T07:30:04.681Z,16.96
2018-10-05T07:30:45.495Z,17.05
2018-10-05T07:31:26.285Z,17.15
2018-10-05T07:33:33.944Z,17.38
2018-10-05T07:34:36.475Z,17.32
2018-10-05T07:35:32.045Z,17.25
2018-10-05T07:36:28.031Z,17.12
2018-10-05T07:37:08.665Z,17.15
2018-10-05T07:37:49.292Z,17.09
2018-10-05T07:38:30.723Z,16.98
2018-10-05T07:39:11.357Z,16.69
2018-10-05T07:39:51.837Z,16.67
2018-10-05T07:40:32.592Z,16.66
2018-10-05T07:41:13.244Z,16.65
2018-10-05T07:41:53.680Z,16.8
2018-10-05T07:42:34.274Z,16.92
2018-10-05T07:43:14.942Z,17.1
2018-10-05T07:43:55.554Z,17.22
2018-10-05T07:44:36.076Z,17.28
2018-10-05T07:45:16.638Z,17.57
2018-10-05T07:45:57.166Z,17.65
2018-10-05T07:46:37.716Z,17.81
2018-10-05T07:47:18.296Z,17.94
2018-10-05T07:47:59.100Z,18.13
2018-10-05T07:48:39.778Z,18.07
2018-10-05T07:49:20.288Z,18.05
2018-10-05T07:50:01.382Z,17.95
2018-10-05T07:50:41.867Z,17.87
2018-10-05T07:51:22.055Z,17.73
2018-10-05T07:52:02.451Z,17.71
2018-10-05T07:52:43.881Z,17.92
2018-10-05T07:53:23.585Z,17.92
2018-10-05T07:54:04.861Z,17.96
2018-10-05T07:56:14.155Z,18.47
2018-10-05T07:56:54.594Z,18.57
2018-10-05T07:57:35.288Z,18.82
2018-10-05T07:58:15.498Z,18.9
2018-10-05T07:58:55.876Z,19.09
2018-10-05T07:59:36.759Z,19.23
2018-10-05T08:00:17.271Z,19.49
2018-10-05T08:00:58.631Z,19.55
2018-10-05T08:01:39.144Z,19.5
2018-10-05T08:02:19.725Z,19.32
2018-10-05T08:03:00.810Z,19.27
2018-10-05T08:03:41.249Z,19.16
2018-10-05T08:04:21.947Z,18.9
2018-10-05T08:05:02.448Z,18.72
2018-10-05T08:05:43.257Z,18.44
2018-10-05T08:06:23.786Z,18.42
2018-10-05T08:07:04.643Z,18.38
2018-10-05T08:07:45.957Z,18.51
2018-10-05T08:08:26.773Z,18.62
2018-10-05T08:09:07.825Z,18.86
2018-10-05T08:09:49.782Z,19.05
2018-10-05T08:10:31.216Z,19.21
2018-10-05T08:11:11.978Z,19.42
2018-10-05T08:11:52.527Z,19.6
2018-10-05T08:12:33.154Z,19.61
2018-10-05T08:13:13.661Z,19.61
2018-10-05T08:13:56.143Z,19.68
2018-10-05T08:14:37.321Z,19.49
2018-10-05T08:15:17.574Z,19.47
2018-10-05T08:15:58.662Z,19.32
2018-10-05T08:16:39.255Z,19.1
2018-10-05T08:17:20.031Z,18.93
2018-10-05T08:18:00.488Z,18.62
2018-10-05T08:18:41.173Z,18.6
2018-10-05T08:19:21.643Z,18.76
2018-10-05T08:20:02.117Z,19.02
2018-10-05T08:20:42.763Z,19.16
2018-10-05T08:21:23.249Z,19.43
2018-10-05T08:22:03.641Z,19.46
2018-10-05T08:22:44.997Z,19.62
2018-10-05T08:23:25.594Z,19.65
2018-10-05T08:24:05.948Z,19.6
2018-10-05T08:24:46.328Z,19.76
2018-10-05T08:25:26.805Z,19.72
2018-10-05T08:26:07.219Z,19.86
2018-10-05T08:26:47.657Z,19.94
2018-10-05T08:27:28.149Z,20.13
2018-10-05T08:28:08.601Z,20.26
2018-10-05T08:28:48.994Z,20.3
2018-10-05T08:29:29.443Z,20.37
2018-10-05T08:30:09.842Z,20.51
2018-10-05T08:30:50.381Z,20.57
2018-10-05T08:31:30.927Z,20.81
2018-10-05T08:32:11.611Z,20.78
2018-10-05T08:32:51.820Z,20.69
2018-10-05T08:33:32.233Z,20.78
2018-10-05T08:34:14.518Z,20.9
2018-10-05T08:34:54.785Z,20.9
2018-10-05T08:35:36.380Z,21.01
2018-10-05T08:36:17.194Z,21
2018-10-05T08:36:57.579Z,20.96
2018-10-05T08:37:38.060Z,20.78
2018-10-05T08:38:18.547Z,20.81
2018-10-05T08:38:59.147Z,20.78
2018-10-05T08:39:39.614Z,20.72
2018-10-05T08:40:21.728Z,20.85
2018-10-05T08:41:02.136Z,21.05
2018-10-05T08:41:45.110Z,21.21
2018-10-05T08:42:25.805Z,21.46
2018-10-05T08:43:06.111Z,21.58
2018-10-05T08:43:47.206Z,21.42
2018-10-05T08:44:27.651Z,21.45
2018-10-05T08:45:08.255Z,21.28
2018-10-05T08:45:48.704Z,21.22
2018-10-05T08:46:31.155Z,21.18
2018-10-05T08:47:11.695Z,21.16
2018-10-05T08:47:52.006Z,20.97
2018-10-05T08:48:32.567Z,20.85
2018-10-05T08:49:13.051Z,20.87
2018-10-05T08:49:53.544Z,20.96
2018-10-05T08:50:33.973Z,20.98
2018-10-05T08:51:14.417Z,21.01
2018-10-05T08:51:54.913Z,21.03
2018-10-05T08:52:35.385Z,20.98
2018-10-05T08:53:16.172Z,21.13
2018-10-05T08:53:56.388Z,21.12
2018-10-05T08:54:37.037Z,21.18
2018-10-05T08:55:19.339Z,21.3
2018-10-05T08:55:59.923Z,21.16
2018-10-05T08:56:41.397Z,21.19
2018-10-05T08:57:22.175Z,21.19
2018-10-05T08:58:02.518Z,21.4
2018-10-05T08:58:43.034Z,21.45
2018-10-05T08:59:23.484Z,21.27
2018-10-05T09:00:03.958Z,21.16
2018-10-05T09:00:44.305Z,20.87
2018-10-05T09:03:02.116Z,21
2018-10-05T09:03:54.240Z,20.97
2018-10-05T09:04:47.058Z,20.91
2018-10-05T09:05:41.007Z,20.91
2018-10-05T09:06:33.829Z,20.72
2018-10-05T09:07:26.322Z,20.68
2018-10-05T09:08:18.058Z,20.51
2018-10-05T09:09:15.327Z,20.68
2018-10-05T09:10:12.273Z,20.81
2018-10-05T09:11:14.288Z,20.91
2018-10-05T09:11:58.322Z,21.05
2018-10-05T09:12:39.810Z,21.01
2018-10-05T09:13:20.282Z,20.97
2018-10-05T09:14:00.765Z,20.94
2018-10-05T09:14:41.197Z,20.88
2018-10-05T09:15:21.557Z,21.05
2018-10-05T09:16:02.026Z,21.16
2018-10-05T09:16:42.563Z,21.36
2018-10-05T09:17:24.616Z,21.22
2018-10-05T09:18:05.384Z,21.27
2018-10-05T09:18:46.106Z,21.16
2018-10-05T09:19:26.878Z,21.16
2018-10-05T09:20:07.226Z,21.28
2018-10-05T09:20:47.669Z,21.43
2018-10-05T09:21:28.427Z,21.59
2018-10-05T09:22:09.136Z,21.66
2018-10-05T09:22:50.276Z,21.67
2018-10-05T09:23:30.921Z,21.58
2018-10-05T09:24:11.492Z,21.67
2018-10-05T09:24:53.021Z,21.79
2018-10-05T09:25:33.034Z,21.82
2018-10-05T09:26:13.529Z,21.98
2018-10-05T09:26:54.012Z,22.09
2018-10-05T09:27:35.101Z,22.27
2018-10-05T09:28:15.569Z,22.46
2018-10-05T09:28:56.225Z,22.75
2018-10-05T09:29:36.852Z,22.88
2018-10-05T09:30:17.336Z,23.23
2018-10-05T09:30:57.853Z,23.44
2018-10-05T09:31:38.702Z,23.67
2018-10-05T09:32:19.770Z,23.47
2018-10-05T09:33:07.142Z,23.39
2018-10-05T09:33:53.408Z,23.14
2018-10-05T09:34:34.584Z,23.03
2018-10-05T09:35:16.248Z,22.93
2018-10-05T09:35:56.540Z,22.96
2018-10-05T09:36:37.337Z,22.97
2018-10-05T09:37:17.806Z,22.97
2018-10-05T09:37:58.353Z,23.03
2018-10-05T09:38:38.908Z,23.21
2018-10-05T09:39:19.547Z,23.32
2018-10-05T09:40:00.380Z,23.49
2018-10-05T09:40:55.442Z,23.77
2018-10-05T09:41:35.906Z,23.99
2018-10-05T09:42:16.312Z,24.11
2018-10-05T09:42:56.849Z,24
2018-10-05T09:43:37.160Z,23.99
2018-10-05T09:44:17.685Z,24
2018-10-05T09:44:58.325Z,23.94
2018-10-05T09:45:38.521Z,23.84
2018-10-05T09:46:19.032Z,23.89
2018-10-05T09:46:59.493Z,23.82
2018-10-05T09:47:40.265Z,23.86
2018-10-05T09:48:20.711Z,23.86
2018-10-05T09:49:01.085Z,23.81
2018-10-05T09:49:41.567Z,23.77
2018-10-05T09:50:21.986Z,23.69
2018-10-05T09:51:02.388Z,23.56
2018-10-05T09:51:42.895Z,23.63